sensor_id;sensor_type;location;lat;lon;timestamp;pressure;altitude;pressure_sealevel;temperature;humidity
2549;BME280;1284;53.520;10.248;2023-04-30T00:02:45;101483.19;;;10.18;69.60
2549;BME280;1284;53.520;10.248;2023-04-30T00:05:39;101488.78;;;10.13;69.30
2549;BME280;1284;53.520;10.248;2023-04-30T00:08:21;101487.03;;;10.17;69.47
2549;BME280;1284;53.520;10.248;2023-04-30T00:10:59;101484.53;;;10.12;69.66
2549;BME280;1284;53.520;10.248;2023-04-30T00:13:57;101500.03;;;10.15;69.36
2549;BME280;1284;53.520;10.248;2023-04-30T00:16:43;101495.31;;;10.12;69.54
2549;BME280;1284;53.520;10.248;2023-04-30T00:19:32;101495.28;;;9.91;70.95
2549;BME280;1284;53.520;10.248;2023-04-30T00:22:10;101491.03;;;9.90;71.21
2549;BME280;1284;53.520;10.248;2023-04-30T00:24:59;101505.53;;;9.98;70.31
2549;BME280;1284;53.520;10.248;2023-04-30T00:27:34;101502.50;;;9.99;70.59
2549;BME280;1284;53.520;10.248;2023-04-30T00:30:26;101502.84;;;9.98;70.39
2549;BME280;1284;53.520;10.248;2023-04-30T00:33:23;101505.28;;;9.91;70.45
2549;BME280;1284;53.520;10.248;2023-04-30T00:36:16;101512.88;;;9.89;70.11
2549;BME280;1284;53.520;10.248;2023-04-30T00:39:41;101515.25;;;9.90;69.94
2549;BME280;1284;53.520;10.248;2023-04-30T00:42:19;101516.88;;;9.83;70.61
2549;BME280;1284;53.520;10.248;2023-04-30T00:48:11;101524.41;;;9.69;71.14
2549;BME280;1284;53.520;10.248;2023-04-30T00:51:13;101516.84;;;9.62;71.48
2549;BME280;1284;53.520;10.248;2023-04-30T00:53:59;101525.06;;;9.66;71.35
2549;BME280;1284;53.520;10.248;2023-04-30T00:56:34;101523.72;;;9.51;72.24
2549;BME280;1284;53.520;10.248;2023-04-30T00:59:03;101525.47;;;9.56;72.02
2549;BME280;1284;53.520;10.248;2023-04-30T01:01:53;101533.06;;;9.54;71.79
2549;BME280;1284;53.520;10.248;2023-04-30T01:04:31;101533.06;;;9.54;71.55
2549;BME280;1284;53.520;10.248;2023-04-30T01:07:03;101541.75;;;9.51;71.77
2549;BME280;1284;53.520;10.248;2023-04-30T01:09:46;101533.28;;;9.40;72.24
2549;BME280;1284;53.520;10.248;2023-04-30T01:12:52;101541.03;;;9.42;72.14
2549;BME280;1284;53.520;10.248;2023-04-30T01:16:06;101539.13;;;9.42;71.41
2549;BME280;1284;53.520;10.248;2023-04-30T01:20:00;101543.75;;;9.33;72.47
2549;BME280;1284;53.520;10.248;2023-04-30T01:29:34;101535.97;;;9.11;73.24
2549;BME280;1284;53.520;10.248;2023-04-30T01:32:14;101543.84;;;9.16;73.02
2549;BME280;1284;53.520;10.248;2023-04-30T01:41:31;101546.84;;;9.15;73.08
2549;BME280;1284;53.520;10.248;2023-04-30T01:47:40;101551.34;;;8.93;73.27
2549;BME280;1284;53.520;10.248;2023-04-30T01:51:14;101550.41;;;8.89;73.54
2549;BME280;1284;53.520;10.248;2023-04-30T01:54:29;101554.38;;;8.92;73.11
2549;BME280;1284;53.520;10.248;2023-04-30T01:57:42;101560.69;;;8.87;73.48
2549;BME280;1284;53.520;10.248;2023-04-30T02:00:33;101562.13;;;8.85;73.12
2549;BME280;1284;53.520;10.248;2023-04-30T02:03:18;101569.56;;;8.88;72.88
2549;BME280;1284;53.520;10.248;2023-04-30T02:05:57;101574.78;;;8.84;73.13
2549;BME280;1284;53.520;10.248;2023-04-30T02:08:53;101570.81;;;8.82;73.52
2549;BME280;1284;53.520;10.248;2023-04-30T02:11:30;101570.69;;;8.78;73.68
2549;BME280;1284;53.520;10.248;2023-04-30T02:14:05;101570.69;;;8.70;74.23
2549;BME280;1284;53.520;10.248;2023-04-30T02:17:18;101569.44;;;8.59;74.16
2549;BME280;1284;53.520;10.248;2023-04-30T02:20:32;101578.16;;;8.47;74.74
2549;BME280;1284;53.520;10.248;2023-04-30T02:23:25;101579.25;;;8.46;75.28
2549;BME280;1284;53.520;10.248;2023-04-30T02:26:14;101574.19;;;8.45;75.78
2549;BME280;1284;53.520;10.248;2023-04-30T02:28:52;101577.81;;;8.49;74.88
2549;BME280;1284;53.520;10.248;2023-04-30T02:31:45;101578.91;;;8.56;75.23
2549;BME280;1284;53.520;10.248;2023-04-30T02:34:58;101587.28;;;8.63;74.78
2549;BME280;1284;53.520;10.248;2023-04-30T02:38:10;101581.13;;;8.54;74.80
2549;BME280;1284;53.520;10.248;2023-04-30T02:40:44;101583.69;;;8.34;75.08
2549;BME280;1284;53.520;10.248;2023-04-30T02:43:32;101587.94;;;8.35;75.01
2549;BME280;1284;53.520;10.248;2023-04-30T02:46:07;101594.25;;;8.39;74.92
2549;BME280;1284;53.520;10.248;2023-04-30T02:48:35;101587.78;;;8.40;75.16
2549;BME280;1284;53.520;10.248;2023-04-30T02:51:17;101582.09;;;8.41;75.27
2549;BME280;1284;53.520;10.248;2023-04-30T02:53:53;101588.56;;;8.40;75.04
2549;BME280;1284;53.520;10.248;2023-04-30T02:56:24;101584.28;;;8.31;75.40
2549;BME280;1284;53.520;10.248;2023-04-30T02:59:18;101592.66;;;8.29;75.30
2549;BME280;1284;53.520;10.248;2023-04-30T03:02:11;101598.94;;;8.07;76.33
2549;BME280;1284;53.520;10.248;2023-04-30T03:07:56;101595.78;;;8.14;76.00
2549;BME280;1284;53.520;10.248;2023-04-30T03:10:42;101591.84;;;8.20;74.98
2549;BME280;1284;53.520;10.248;2023-04-30T03:13:15;101588.84;;;8.13;74.88
2549;BME280;1284;53.520;10.248;2023-04-30T03:16:01;101590.25;;;8.02;75.51
2549;BME280;1284;53.520;10.248;2023-04-30T03:18:37;101595.78;;;7.97;75.14
2549;BME280;1284;53.520;10.248;2023-04-30T03:21:45;101598.59;;;7.92;75.92
2549;BME280;1284;53.520;10.248;2023-04-30T03:24:37;101602.41;;;7.91;75.91
2549;BME280;1284;53.520;10.248;2023-04-30T03:27:19;101602.56;;;7.94;76.45
2549;BME280;1284;53.520;10.248;2023-04-30T03:30:38;101600.81;;;7.90;76.49
2549;BME280;1284;53.520;10.248;2023-04-30T03:33:30;101610.75;;;7.89;76.24
2549;BME280;1284;53.520;10.248;2023-04-30T03:36:19;101606.97;;;7.82;76.55
2549;BME280;1284;53.520;10.248;2023-04-30T03:39:34;101609.47;;;7.87;76.72
2549;BME280;1284;53.520;10.248;2023-04-30T03:42:09;101599.56;;;7.87;76.12
2549;BME280;1284;53.520;10.248;2023-04-30T03:44:42;101601.13;;;7.88;76.30
2549;BME280;1284;53.520;10.248;2023-04-30T03:48:02;101609.78;;;7.77;76.68
2549;BME280;1284;53.520;10.248;2023-04-30T03:50:35;101607.84;;;7.69;76.78
2549;BME280;1284;53.520;10.248;2023-04-30T03:53:15;101619.66;;;7.59;77.17
2549;BME280;1284;53.520;10.248;2023-04-30T03:56:14;101610.84;;;7.59;78.12
2549;BME280;1284;53.520;10.248;2023-04-30T03:58:50;101616.97;;;7.59;77.71
2549;BME280;1284;53.520;10.248;2023-04-30T04:02:24;101619.81;;;7.54;77.86
2549;BME280;1284;53.520;10.248;2023-04-30T04:05:33;101633.19;;;7.54;78.70
2549;BME280;1284;53.520;10.248;2023-04-30T04:08:08;101619.50;;;7.56;78.64
2549;BME280;1284;53.520;10.248;2023-04-30T04:10:47;101625.16;;;7.54;78.38
2549;BME280;1284;53.520;10.248;2023-04-30T04:13:48;101618.69;;;7.55;78.30
2549;BME280;1284;53.520;10.248;2023-04-30T04:16:20;101619.66;;;7.59;78.82
2549;BME280;1284;53.520;10.248;2023-04-30T04:19:20;101631.34;;;7.63;78.35
2549;BME280;1284;53.520;10.248;2023-04-30T04:22:13;101631.81;;;7.57;78.00
2549;BME280;1284;53.520;10.248;2023-04-30T04:24:45;101629.78;;;7.62;78.70
2549;BME280;1284;53.520;10.248;2023-04-30T04:27:27;101627.72;;;7.68;78.74
2549;BME280;1284;53.520;10.248;2023-04-30T04:30:07;101635.91;;;7.63;78.23
2549;BME280;1284;53.520;10.248;2023-04-30T04:33:16;101633.63;;;7.48;79.35
2549;BME280;1284;53.520;10.248;2023-04-30T04:35:56;101642.63;;;7.52;79.49
2549;BME280;1284;53.520;10.248;2023-04-30T04:38:32;101642.53;;;7.57;79.50
2549;BME280;1284;53.520;10.248;2023-04-30T04:41:14;101646.44;;;7.59;80.00
2549;BME280;1284;53.520;10.248;2023-04-30T04:44:04;101649.94;;;7.60;79.86
2549;BME280;1284;53.520;10.248;2023-04-30T04:46:36;101641.25;;;7.63;79.80
2549;BME280;1284;53.520;10.248;2023-04-30T04:49:23;101653.91;;;7.71;79.78
2549;BME280;1284;53.520;10.248;2023-04-30T04:52:00;101645.75;;;7.76;80.23
2549;BME280;1284;53.520;10.248;2023-04-30T04:54:31;101656.31;;;7.81;80.29
2549;BME280;1284;53.520;10.248;2023-04-30T04:57:27;101655.81;;;7.79;80.07
2549;BME280;1284;53.520;10.248;2023-04-30T05:00:02;101656.81;;;7.91;79.90
2549;BME280;1284;53.520;10.248;2023-04-30T05:02:38;101671.97;;;7.96;80.38
2549;BME280;1284;53.520;10.248;2023-04-30T05:05:25;101668.50;;;8.04;79.97
2549;BME280;1284;53.520;10.248;2023-04-30T05:08:04;101679.25;;;8.04;79.83
2549;BME280;1284;53.520;10.248;2023-04-30T05:10:50;101689.53;;;8.10;80.26
2549;BME280;1284;53.520;10.248;2023-04-30T05:13:24;101682.13;;;8.16;79.98
2549;BME280;1284;53.520;10.248;2023-04-30T05:16:18;101676.66;;;8.30;79.97
2549;BME280;1284;53.520;10.248;2023-04-30T05:22:01;101682.97;;;8.51;79.84
2549;BME280;1284;53.520;10.248;2023-04-30T05:24:39;101681.25;;;8.55;79.42
2549;BME280;1284;53.520;10.248;2023-04-30T05:27:32;101682.66;;;8.78;79.36
2549;BME280;1284;53.520;10.248;2023-04-30T05:30:22;101698.78;;;9.03;78.64
2549;BME280;1284;53.520;10.248;2023-04-30T05:32:56;101692.91;;;9.19;77.36
2549;BME280;1284;53.520;10.248;2023-04-30T05:35:40;101698.63;;;9.63;76.64
2549;BME280;1284;53.520;10.248;2023-04-30T05:38:48;101685.13;;;10.01;74.99
2549;BME280;1284;53.520;10.248;2023-04-30T05:41:33;101701.69;;;10.20;72.32
2549;BME280;1284;53.520;10.248;2023-04-30T05:44:04;101703.66;;;10.32;71.24
2549;BME280;1284;53.520;10.248;2023-04-30T05:47:08;101710.50;;;10.70;71.28
2549;BME280;1284;53.520;10.248;2023-04-30T05:49:36;101706.44;;;10.85;69.85
2549;BME280;1284;53.520;10.248;2023-04-30T05:52:08;101712.47;;;11.03;69.46
2549;BME280;1284;53.520;10.248;2023-04-30T05:54:59;101716.59;;;11.33;67.79
2549;BME280;1284;53.520;10.248;2023-04-30T05:57:42;101719.16;;;11.62;66.13
2549;BME280;1284;53.520;10.248;2023-04-30T06:00:18;101729.44;;;11.81;65.45
2549;BME280;1284;53.520;10.248;2023-04-30T06:03:19;101724.16;;;11.84;65.12
2549;BME280;1284;53.520;10.248;2023-04-30T06:05:51;101726.19;;;11.99;63.28
2549;BME280;1284;53.520;10.248;2023-04-30T06:08:39;101728.31;;;11.82;62.27
2549;BME280;1284;53.520;10.248;2023-04-30T06:11:45;101733.16;;;12.12;61.50
2549;BME280;1284;53.520;10.248;2023-04-30T06:16:55;101729.09;;;12.42;60.60
2549;BME280;1284;53.520;10.248;2023-04-30T06:19:20;101722.97;;;12.57;59.93
2549;BME280;1284;53.520;10.248;2023-04-30T06:21:46;101728.47;;;12.73;58.65
2549;BME280;1284;53.520;10.248;2023-04-30T06:24:11;101730.78;;;12.87;58.01
2549;BME280;1284;53.520;10.248;2023-04-30T06:26:37;101725.81;;;12.89;57.51
2549;BME280;1284;53.520;10.248;2023-04-30T06:29:02;101733.50;;;13.14;56.95
2549;BME280;1284;53.520;10.248;2023-04-30T06:31:29;101733.78;;;13.25;55.68
2549;BME280;1284;53.520;10.248;2023-04-30T06:33:55;101746.91;;;13.38;55.25
2549;BME280;1284;53.520;10.248;2023-04-30T06:36:20;101743.66;;;13.61;54.69
2549;BME280;1284;53.520;10.248;2023-04-30T06:38:45;101751.22;;;13.71;54.46
2549;BME280;1284;53.520;10.248;2023-04-30T06:41:12;101749.66;;;13.70;53.49
2549;BME280;1284;53.520;10.248;2023-04-30T06:43:37;101755.09;;;13.85;52.45
2549;BME280;1284;53.520;10.248;2023-04-30T06:46:03;101752.81;;;14.03;52.01
2549;BME280;1284;53.520;10.248;2023-04-30T06:48:29;101752.63;;;14.11;51.10
2549;BME280;1284;53.520;10.248;2023-04-30T06:50:55;101760.66;;;14.23;50.16
2549;BME280;1284;53.520;10.248;2023-04-30T06:53:22;101750.78;;;14.31;50.86
2549;BME280;1284;53.520;10.248;2023-04-30T06:55:48;101754.28;;;14.31;49.96
2549;BME280;1284;53.520;10.248;2023-04-30T06:58:13;101754.50;;;14.58;50.00
2549;BME280;1284;53.520;10.248;2023-04-30T07:00:39;101754.63;;;14.45;49.58
2549;BME280;1284;53.520;10.248;2023-04-30T07:03:05;101763.66;;;14.69;49.59
2549;BME280;1284;53.520;10.248;2023-04-30T07:05:31;101761.81;;;14.73;49.00
2549;BME280;1284;53.520;10.248;2023-04-30T07:07:57;101760.97;;;14.88;47.88
2549;BME280;1284;53.520;10.248;2023-04-30T07:10:23;101762.53;;;15.08;48.57
2549;BME280;1284;53.520;10.248;2023-04-30T07:12:48;101766.31;;;15.22;48.38
2549;BME280;1284;53.520;10.248;2023-04-30T07:15:14;101767.09;;;15.23;47.11
2549;BME280;1284;53.520;10.248;2023-04-30T07:17:39;101770.63;;;15.43;46.53
2549;BME280;1284;53.520;10.248;2023-04-30T07:20:07;101765.16;;;15.62;46.79
2549;BME280;1284;53.520;10.248;2023-04-30T07:22:33;101766.91;;;15.73;45.93
2549;BME280;1284;53.520;10.248;2023-04-30T07:24:59;101772.81;;;15.79;45.96
2549;BME280;1284;53.520;10.248;2023-04-30T07:27:25;101765.34;;;15.95;45.94
2549;BME280;1284;53.520;10.248;2023-04-30T07:29:51;101768.31;;;16.12;45.90
2549;BME280;1284;53.520;10.248;2023-04-30T07:32:16;101778.09;;;16.17;45.26
2549;BME280;1284;53.520;10.248;2023-04-30T07:34:42;101770.91;;;16.05;45.06
2549;BME280;1284;53.520;10.248;2023-04-30T07:37:08;101770.03;;;16.24;45.02
2549;BME280;1284;53.520;10.248;2023-04-30T07:39:34;101777.91;;;16.29;44.17
2549;BME280;1284;53.520;10.248;2023-04-30T07:42:01;101771.63;;;16.25;43.42
2549;BME280;1284;53.520;10.248;2023-04-30T07:44:27;101775.81;;;16.19;43.63
2549;BME280;1284;53.520;10.248;2023-04-30T07:46:52;101777.16;;;16.32;44.18
2549;BME280;1284;53.520;10.248;2023-04-30T07:49:19;101783.69;;;16.50;44.55
2549;BME280;1284;53.520;10.248;2023-04-30T07:51:45;101788.41;;;16.83;43.99
2549;BME280;1284;53.520;10.248;2023-04-30T07:54:11;101788.44;;;16.86;43.65
2549;BME280;1284;53.520;10.248;2023-04-30T07:56:36;101791.13;;;16.83;42.21
2549;BME280;1284;53.520;10.248;2023-04-30T07:59:02;101785.91;;;16.71;42.95
2549;BME280;1284;53.520;10.248;2023-04-30T08:01:27;101801.69;;;16.58;43.13
2549;BME280;1284;53.520;10.248;2023-04-30T08:03:53;101789.75;;;16.44;40.94
2549;BME280;1284;53.520;10.248;2023-04-30T08:06:18;101784.28;;;15.91;41.71
2549;BME280;1284;53.520;10.248;2023-04-30T08:08:44;101783.22;;;16.22;43.35
2549;BME280;1284;53.520;10.248;2023-04-30T08:11:10;101783.91;;;16.42;43.18
2549;BME280;1284;53.520;10.248;2023-04-30T08:13:36;101784.72;;;16.68;42.88
2549;BME280;1284;53.520;10.248;2023-04-30T08:16:01;101794.19;;;16.78;42.37
2549;BME280;1284;53.520;10.248;2023-04-30T08:18:26;101793.06;;;16.82;42.82
2549;BME280;1284;53.520;10.248;2023-04-30T08:20:52;101800.97;;;17.21;42.39
2549;BME280;1284;53.520;10.248;2023-04-30T08:23:17;101794.97;;;17.08;41.38
2549;BME280;1284;53.520;10.248;2023-04-30T08:25:43;101790.25;;;17.05;41.77
2549;BME280;1284;53.520;10.248;2023-04-30T08:28:08;101790.81;;;17.21;42.29
2549;BME280;1284;53.520;10.248;2023-04-30T08:30:34;101801.06;;;17.31;41.30
2549;BME280;1284;53.520;10.248;2023-04-30T08:32:59;101797.31;;;17.43;41.12
2549;BME280;1284;53.520;10.248;2023-04-30T08:35:24;101799.25;;;17.79;41.00
2549;BME280;1284;53.520;10.248;2023-04-30T08:37:50;101800.03;;;17.79;40.20
2549;BME280;1284;53.520;10.248;2023-04-30T08:40:16;101800.13;;;17.86;39.56
2549;BME280;1284;53.520;10.248;2023-04-30T08:42:45;101807.25;;;18.01;39.45
2549;BME280;1284;53.520;10.248;2023-04-30T08:45:13;101808.50;;;18.08;39.92
2549;BME280;1284;53.520;10.248;2023-04-30T08:47:43;101807.69;;;18.03;38.29
2549;BME280;1284;53.520;10.248;2023-04-30T08:50:09;101795.09;;;17.92;40.35
2549;BME280;1284;53.520;10.248;2023-04-30T08:52:36;101795.00;;;18.29;40.87
2549;BME280;1284;53.520;10.248;2023-04-30T08:55:06;101797.75;;;18.32;40.40
2549;BME280;1284;53.520;10.248;2023-04-30T08:57:36;101790.78;;;18.38;40.38
2549;BME280;1284;53.520;10.248;2023-04-30T09:00:03;101794.81;;;18.51;39.99
2549;BME280;1284;53.520;10.248;2023-04-30T09:02:31;101795.63;;;18.59;39.71
2549;BME280;1284;53.520;10.248;2023-04-30T09:04:57;101797.31;;;18.81;38.72
2549;BME280;1284;53.520;10.248;2023-04-30T09:07:23;101792.19;;;18.69;39.05
2549;BME280;1284;53.520;10.248;2023-04-30T09:09:52;101794.94;;;18.79;39.66
2549;BME280;1284;53.520;10.248;2023-04-30T09:12:18;101791.97;;;19.02;39.32
2549;BME280;1284;53.520;10.248;2023-04-30T09:15:05;101801.81;;;19.28;38.17
2549;BME280;1284;53.520;10.248;2023-04-30T09:17:33;101808.06;;;19.32;38.31
2549;BME280;1284;53.520;10.248;2023-04-30T09:20:10;101796.38;;;19.31;37.94
2549;BME280;1284;53.520;10.248;2023-04-30T09:22:37;101791.75;;;19.49;38.55
2549;BME280;1284;53.520;10.248;2023-04-30T09:25:02;101790.19;;;19.59;36.77
2549;BME280;1284;53.520;10.248;2023-04-30T09:27:28;101793.28;;;19.36;37.05
2549;BME280;1284;53.520;10.248;2023-04-30T09:29:53;101784.69;;;19.34;37.04
2549;BME280;1284;53.520;10.248;2023-04-30T09:32:19;101800.31;;;19.37;37.89
2549;BME280;1284;53.520;10.248;2023-04-30T09:34:44;101788.59;;;19.47;38.58
2549;BME280;1284;53.520;10.248;2023-04-30T09:37:10;101790.19;;;19.55;37.34
2549;BME280;1284;53.520;10.248;2023-04-30T09:39:49;101790.97;;;19.59;38.19
2549;BME280;1284;53.520;10.248;2023-04-30T09:42:15;101791.78;;;19.81;38.32
2549;BME280;1284;53.520;10.248;2023-04-30T09:44:41;101789.88;;;20.17;37.31
2549;BME280;1284;53.520;10.248;2023-04-30T09:47:16;101782.47;;;20.24;37.75
2549;BME280;1284;53.520;10.248;2023-04-30T09:49:46;101780.47;;;20.35;36.79
2549;BME280;1284;53.520;10.248;2023-04-30T09:52:17;101775.41;;;20.16;35.83
2549;BME280;1284;53.520;10.248;2023-04-30T09:54:44;101767.59;;;20.25;36.69
2549;BME280;1284;53.520;10.248;2023-04-30T09:57:11;101773.41;;;20.59;36.05
2549;BME280;1284;53.520;10.248;2023-04-30T09:59:43;101777.66;;;20.74;36.32
2549;BME280;1284;53.520;10.248;2023-04-30T10:02:09;101769.06;;;20.61;35.82
2549;BME280;1284;53.520;10.248;2023-04-30T10:04:37;101768.63;;;20.77;35.65
2549;BME280;1284;53.520;10.248;2023-04-30T10:07:14;101764.78;;;20.64;34.94
2549;BME280;1284;53.520;10.248;2023-04-30T10:10:13;101761.53;;;20.97;35.55
2549;BME280;1284;53.520;10.248;2023-04-30T10:12:48;101762.63;;;21.14;35.54
2549;BME280;1284;53.520;10.248;2023-04-30T10:15:19;101763.06;;;21.09;34.71
2549;BME280;1284;53.520;10.248;2023-04-30T10:17:49;101758.00;;;21.07;35.17
2549;BME280;1284;53.520;10.248;2023-04-30T10:20:17;101759.56;;;20.98;34.46
2549;BME280;1284;53.520;10.248;2023-04-30T10:22:47;101746.72;;;20.77;35.04
2549;BME280;1284;53.520;10.248;2023-04-30T10:25:12;101747.44;;;21.06;35.60
2549;BME280;1284;53.520;10.248;2023-04-30T10:27:38;101756.69;;;21.29;34.91
2549;BME280;1284;53.520;10.248;2023-04-30T10:30:06;101754.47;;;21.69;34.69
2549;BME280;1284;53.520;10.248;2023-04-30T10:32:38;101760.78;;;21.66;34.81
2549;BME280;1284;53.520;10.248;2023-04-30T10:35:18;101763.38;;;21.87;33.80
2549;BME280;1284;53.520;10.248;2023-04-30T10:37:53;101747.88;;;21.59;33.93
2549;BME280;1284;53.520;10.248;2023-04-30T10:40:21;101754.22;;;22.04;34.88
2549;BME280;1284;53.520;10.248;2023-04-30T10:42:48;101739.31;;;22.01;33.74
2549;BME280;1284;53.520;10.248;2023-04-30T10:45:17;101747.41;;;22.19;33.82
2549;BME280;1284;53.520;10.248;2023-04-30T10:47:45;101748.34;;;21.47;32.20
2549;BME280;1284;53.520;10.248;2023-04-30T10:50:11;101741.47;;;21.18;34.08
2549;BME280;1284;53.520;10.248;2023-04-30T10:52:37;101737.91;;;21.86;33.37
2549;BME280;1284;53.520;10.248;2023-04-30T10:55:04;101732.88;;;22.22;33.17
2549;BME280;1284;53.520;10.248;2023-04-30T10:57:39;101735.25;;;22.20;33.66
2549;BME280;1284;53.520;10.248;2023-04-30T11:02:44;101726.63;;;22.18;31.70
2549;BME280;1284;53.520;10.248;2023-04-30T11:05:13;101723.75;;;20.50;33.04
2549;BME280;1284;53.520;10.248;2023-04-30T11:07:56;101730.19;;;20.98;34.88
2549;BME280;1284;53.520;10.248;2023-04-30T11:10:23;101720.16;;;21.46;33.95
2549;BME280;1284;53.520;10.248;2023-04-30T11:12:54;101726.84;;;21.93;32.88
2549;BME280;1284;53.520;10.248;2023-04-30T11:15:24;101724.47;;;21.99;34.01
2549;BME280;1284;53.520;10.248;2023-04-30T11:17:50;101715.56;;;22.25;33.33
2549;BME280;1284;53.520;10.248;2023-04-30T11:20:21;101714.88;;;22.55;32.69
2549;BME280;1284;53.520;10.248;2023-04-30T11:22:47;101716.09;;;22.50;32.36
2549;BME280;1284;53.520;10.248;2023-04-30T11:25:18;101707.47;;;22.48;32.68
2549;BME280;1284;53.520;10.248;2023-04-30T11:27:44;101708.53;;;22.61;32.09
2549;BME280;1284;53.520;10.248;2023-04-30T11:30:14;101712.31;;;22.71;33.05
2549;BME280;1284;53.520;10.248;2023-04-30T11:32:43;101710.69;;;22.77;32.35
2549;BME280;1284;53.520;10.248;2023-04-30T11:35:10;101702.25;;;22.91;32.96
2549;BME280;1284;53.520;10.248;2023-04-30T11:37:37;101709.59;;;23.01;32.69
2549;BME280;1284;53.520;10.248;2023-04-30T11:40:07;101713.56;;;23.23;32.00
2549;BME280;1284;53.520;10.248;2023-04-30T11:42:36;101713.41;;;23.37;33.09
2549;BME280;1284;53.520;10.248;2023-04-30T11:50:12;101699.69;;;22.77;31.79
2549;BME280;1284;53.520;10.248;2023-04-30T11:52:41;101705.63;;;23.02;32.76
2549;BME280;1284;53.520;10.248;2023-04-30T11:55:14;101702.22;;;22.94;32.14
2549;BME280;1284;53.520;10.248;2023-04-30T11:57:45;101691.56;;;22.96;32.34
2549;BME280;1284;53.520;10.248;2023-04-30T12:02:41;101695.13;;;23.50;32.23
2549;BME280;1284;53.520;10.248;2023-04-30T12:05:24;101700.50;;;23.34;30.96
2549;BME280;1284;53.520;10.248;2023-04-30T12:07:54;101695.72;;;22.81;30.57
2549;BME280;1284;53.520;10.248;2023-04-30T12:10:20;101682.25;;;22.60;31.64
2549;BME280;1284;53.520;10.248;2023-04-30T12:12:47;101691.28;;;22.91;32.52
2549;BME280;1284;53.520;10.248;2023-04-30T12:15:18;101681.13;;;23.14;32.53
2549;BME280;1284;53.520;10.248;2023-04-30T12:17:45;101682.72;;;23.39;32.35
2549;BME280;1284;53.520;10.248;2023-04-30T12:20:12;101673.47;;;23.25;32.11
2549;BME280;1284;53.520;10.248;2023-04-30T12:22:40;101671.22;;;23.20;32.88
2549;BME280;1284;53.520;10.248;2023-04-30T12:25:08;101668.59;;;23.40;32.25
2549;BME280;1284;53.520;10.248;2023-04-30T12:27:39;101668.41;;;22.97;30.90
2549;BME280;1284;53.520;10.248;2023-04-30T12:30:05;101666.91;;;23.19;31.77
2549;BME280;1284;53.520;10.248;2023-04-30T12:32:38;101665.97;;;23.29;31.85
2549;BME280;1284;53.520;10.248;2023-04-30T12:35:05;101668.34;;;23.27;31.34
2549;BME280;1284;53.520;10.248;2023-04-30T12:37:31;101666.59;;;22.23;30.49
2549;BME280;1284;53.520;10.248;2023-04-30T12:39:56;101665.88;;;22.50;32.69
2549;BME280;1284;53.520;10.248;2023-04-30T12:42:23;101659.44;;;22.63;32.85
2549;BME280;1284;53.520;10.248;2023-04-30T12:44:49;101661.16;;;22.84;33.24
2549;BME280;1284;53.520;10.248;2023-04-30T12:47:14;101667.56;;;23.00;32.24
2549;BME280;1284;53.520;10.248;2023-04-30T12:49:40;101671.78;;;23.08;31.62
2549;BME280;1284;53.520;10.248;2023-04-30T12:52:12;101659.69;;;22.42;31.36
2549;BME280;1284;53.520;10.248;2023-04-30T12:54:39;101661.47;;;22.56;32.03
2549;BME280;1284;53.520;10.248;2023-04-30T12:57:08;101647.41;;;22.20;31.68
2549;BME280;1284;53.520;10.248;2023-04-30T12:59:36;101648.00;;;21.56;31.90
2549;BME280;1284;53.520;10.248;2023-04-30T13:02:09;101636.09;;;21.74;33.16
2549;BME280;1284;53.520;10.248;2023-04-30T13:04:35;101631.69;;;22.24;33.04
2549;BME280;1284;53.520;10.248;2023-04-30T13:07:02;101633.78;;;22.43;32.52
2549;BME280;1284;53.520;10.248;2023-04-30T13:09:32;101636.50;;;22.77;32.79
2549;BME280;1284;53.520;10.248;2023-04-30T13:11:57;101632.41;;;22.88;32.77
2549;BME280;1284;53.520;10.248;2023-04-30T13:14:22;101628.84;;;22.65;33.34
2549;BME280;1284;53.520;10.248;2023-04-30T13:16:48;101632.47;;;22.85;33.26
2549;BME280;1284;53.520;10.248;2023-04-30T13:19:13;101628.16;;;22.54;31.75
2549;BME280;1284;53.520;10.248;2023-04-30T13:21:40;101627.03;;;22.51;32.66
2549;BME280;1284;53.520;10.248;2023-04-30T13:24:05;101627.75;;;22.59;32.92
2549;BME280;1284;53.520;10.248;2023-04-30T13:26:31;101624.81;;;22.39;32.13
2549;BME280;1284;53.520;10.248;2023-04-30T13:28:56;101613.38;;;22.14;32.46
2549;BME280;1284;53.520;10.248;2023-04-30T13:31:21;101609.84;;;22.43;32.59
2549;BME280;1284;53.520;10.248;2023-04-30T13:33:48;101614.53;;;22.47;32.93
2549;BME280;1284;53.520;10.248;2023-04-30T13:36:13;101610.00;;;22.63;32.90
2549;BME280;1284;53.520;10.248;2023-04-30T13:38:39;101609.16;;;22.36;32.76
2549;BME280;1284;53.520;10.248;2023-04-30T13:41:05;101606.03;;;22.37;32.81
2549;BME280;1284;53.520;10.248;2023-04-30T13:43:30;101600.34;;;22.21;32.33
2549;BME280;1284;53.520;10.248;2023-04-30T13:45:56;101599.91;;;22.57;32.72
2549;BME280;1284;53.520;10.248;2023-04-30T13:48:25;101602.31;;;22.51;31.55
2549;BME280;1284;53.520;10.248;2023-04-30T13:50:51;101595.63;;;22.22;31.02
2549;BME280;1284;53.520;10.248;2023-04-30T13:53:17;101597.00;;;22.03;32.55
2549;BME280;1284;53.520;10.248;2023-04-30T13:55:43;101591.25;;;21.94;31.95
2549;BME280;1284;53.520;10.248;2023-04-30T13:58:08;101600.44;;;22.11;33.59
2549;BME280;1284;53.520;10.248;2023-04-30T14:00:34;101591.81;;;22.12;32.76
2549;BME280;1284;53.520;10.248;2023-04-30T14:02:59;101584.19;;;22.27;32.36
2549;BME280;1284;53.520;10.248;2023-04-30T14:05:25;101583.63;;;22.39;32.32
2549;BME280;1284;53.520;10.248;2023-04-30T14:07:51;101588.81;;;22.64;32.26
2549;BME280;1284;53.520;10.248;2023-04-30T14:13:02;101577.69;;;21.77;31.11
2549;BME280;1284;53.520;10.248;2023-04-30T14:15:28;101575.78;;;21.70;31.29
2549;BME280;1284;53.520;10.248;2023-04-30T14:17:56;101573.66;;;21.88;32.35
2549;BME280;1284;53.520;10.248;2023-04-30T14:20:22;101571.56;;;21.99;31.62
2549;BME280;1284;53.520;10.248;2023-04-30T14:22:47;101574.63;;;22.05;31.85
2549;BME280;1284;53.520;10.248;2023-04-30T14:25:13;101574.06;;;22.20;32.36
2549;BME280;1284;53.520;10.248;2023-04-30T14:27:39;101563.06;;;22.24;32.92
2549;BME280;1284;53.520;10.248;2023-04-30T14:30:05;101559.66;;;22.43;31.58